sensor_id;sensor_type;location;lat;lon;timestamp;pressure;altitude;pressure_sealevel;temperature;humidity
57763;BME280;43592;42.524;12.052;2022-08-06T00:02:20;96669.53;;;21.41;100.00
57763;BME280;43592;42.524;12.052;2022-08-06T00:04:48;96668.41;;;21.35;100.00
57763;BME280;43592;42.524;12.052;2022-08-06T00:07:14;96669.63;;;21.30;100.00
57763;BME280;43592;42.524;12.052;2022-08-06T00:09:39;96677.84;;;21.26;100.00
57763;BME280;43592;42.524;12.052;2022-08-06T00:12:05;96676.34;;;21.22;100.00
57763;BME280;43592;42.524;12.052;2022-08-06T00:14:31;96670.59;;;21.16;100.00
57763;BME280;43592;42.524;12.052;2022-08-06T00:16:57;96676.06;;;21.13;100.00
57763;BME280;43592;42.524;12.052;2022-08-06T00:19:22;96671.00;;;21.15;100.00
57763;BME280;43592;42.524;12.052;2022-08-06T00:21:48;96678.03;;;21.12;100.00
57763;BME280;43592;42.524;12.052;2022-08-06T00:24:14;96676.53;;;21.07;100.00
57763;BME280;43592;42.524;12.052;2022-08-06T00:26:40;96678.16;;;21.01;100.00
57763;BME280;43592;42.524;12.052;2022-08-06T00:29:06;96668.53;;;20.93;100.00
57763;BME280;43592;42.524;12.052;2022-08-06T00:31:31;96669.38;;;20.87;100.00
57763;BME280;43592;42.524;12.052;2022-08-06T00:33:57;96665.97;;;20.79;100.00
57763;BME280;43592;42.524;12.052;2022-08-06T00:36:25;96660.56;;;20.75;100.00
57763;BME280;43592;42.524;12.052;2022-08-06T00:38:51;96666.41;;;20.74;100.00
57763;BME280;43592;42.524;12.052;2022-08-06T00:41:18;96667.59;;;20.69;100.00
57763;BME280;43592;42.524;12.052;2022-08-06T00:43:43;96664.59;;;20.60;100.00
57763;BME280;43592;42.524;12.052;2022-08-06T00:46:09;96659.25;;;20.53;100.00
57763;BME280;43592;42.524;12.052;2022-08-06T00:48:34;96667.03;;;20.47;100.00
57763;BME280;43592;42.524;12.052;2022-08-06T00:51:00;96662.03;;;20.42;100.00
57763;BME280;43592;42.524;12.052;2022-08-06T00:53:25;96659.00;;;20.36;100.00
57763;BME280;43592;42.524;12.052;2022-08-06T00:55:52;96651.25;;;20.31;100.00
57763;BME280;43592;42.524;12.052;2022-08-06T00:58:17;96657.13;;;20.26;100.00
57763;BME280;43592;42.524;12.052;2022-08-06T01:00:43;96656.78;;;20.24;100.00
57763;BME280;43592;42.524;12.052;2022-08-06T01:03:08;96653.34;;;20.16;100.00
57763;BME280;43592;42.524;12.052;2022-08-06T01:05:35;96651.84;;;20.08;100.00
57763;BME280;43592;42.524;12.052;2022-08-06T01:08:01;96655.41;;;20.02;100.00
57763;BME280;43592;42.524;12.052;2022-08-06T01:10:26;96654.66;;;19.98;100.00
57763;BME280;43592;42.524;12.052;2022-08-06T01:12:52;96650.44;;;19.93;100.00
57763;BME280;43592;42.524;12.052;2022-08-06T01:15:18;96648.13;;;19.91;100.00
57763;BME280;43592;42.524;12.052;2022-08-06T01:23:07;96647.31;;;19.94;100.00
57763;BME280;43592;42.524;12.052;2022-08-06T01:28:04;96647.66;;;20.00;100.00
57763;BME280;43592;42.524;12.052;2022-08-06T01:30:34;96655.41;;;19.98;100.00
57763;BME280;43592;42.524;12.052;2022-08-06T01:33:02;96649.25;;;19.94;100.00
57763;BME280;43592;42.524;12.052;2022-08-06T01:35:35;96642.72;;;19.88;100.00
57763;BME280;43592;42.524;12.052;2022-08-06T01:38:16;96647.81;;;19.82;100.00
57763;BME280;43592;42.524;12.052;2022-08-06T01:40:44;96652.47;;;19.78;100.00
57763;BME280;43592;42.524;12.052;2022-08-06T01:43:12;96643.22;;;19.72;100.00
57763;BME280;43592;42.524;12.052;2022-08-06T01:45:39;96653.72;;;19.66;100.00
57763;BME280;43592;42.524;12.052;2022-08-06T01:48:08;96646.38;;;19.60;100.00
57763;BME280;43592;42.524;12.052;2022-08-06T01:50:37;96638.66;;;19.55;100.00
57763;BME280;43592;42.524;12.052;2022-08-06T01:53:03;96644.50;;;19.49;100.00
57763;BME280;43592;42.524;12.052;2022-08-06T01:55:31;96640.25;;;19.48;100.00
57763;BME280;43592;42.524;12.052;2022-08-06T01:57:59;96641.00;;;19.49;100.00
57763;BME280;43592;42.524;12.052;2022-08-06T02:00:25;96635.97;;;19.47;100.00
57763;BME280;43592;42.524;12.052;2022-08-06T02:02:51;96629.81;;;19.43;100.00
57763;BME280;43592;42.524;12.052;2022-08-06T02:05:18;96628.25;;;19.39;100.00
57763;BME280;43592;42.524;12.052;2022-08-06T02:07:46;96630.25;;;19.35;100.00
57763;BME280;43592;42.524;12.052;2022-08-06T02:10:12;96626.38;;;19.32;100.00
57763;BME280;43592;42.524;12.052;2022-08-06T02:12:39;96623.28;;;19.30;100.00
57763;BME280;43592;42.524;12.052;2022-08-06T02:17:35;96625.63;;;19.28;100.00
57763;BME280;43592;42.524;12.052;2022-08-06T02:20:03;96620.94;;;19.32;100.00
57763;BME280;43592;42.524;12.052;2022-08-06T02:22:32;96629.13;;;19.28;100.00
57763;BME280;43592;42.524;12.052;2022-08-06T02:25:00;96629.56;;;19.20;100.00
57763;BME280;43592;42.524;12.052;2022-08-06T02:27:27;96635.00;;;19.13;100.00
57763;BME280;43592;42.524;12.052;2022-08-06T02:29:54;96628.84;;;19.09;100.00
57763;BME280;43592;42.524;12.052;2022-08-06T02:32:21;96627.28;;;19.07;100.00
57763;BME280;43592;42.524;12.052;2022-08-06T02:34:46;96620.69;;;19.09;100.00
57763;BME280;43592;42.524;12.052;2022-08-06T02:37:35;96621.41;;;19.16;100.00
57763;BME280;43592;42.524;12.052;2022-08-06T02:40:13;96619.09;;;19.18;100.00
57763;BME280;43592;42.524;12.052;2022-08-06T02:42:43;96622.22;;;19.17;100.00
57763;BME280;43592;42.524;12.052;2022-08-06T02:45:15;96621.81;;;19.18;100.00
57763;BME280;43592;42.524;12.052;2022-08-06T02:50:13;96612.16;;;19.14;100.00
57763;BME280;43592;42.524;12.052;2022-08-06T02:52:44;96608.66;;;19.10;100.00
57763;BME280;43592;42.524;12.052;2022-08-06T02:57:38;96611.78;;;19.04;100.00
57763;BME280;43592;42.524;12.052;2022-08-06T03:00:06;96606.78;;;19.03;100.00
57763;BME280;43592;42.524;12.052;2022-08-06T03:02:33;96609.88;;;19.01;100.00
57763;BME280;43592;42.524;12.052;2022-08-06T03:05:02;96601.00;;;18.97;100.00
57763;BME280;43592;42.524;12.052;2022-08-06T03:07:28;96602.94;;;18.93;100.00
57763;BME280;43592;42.524;12.052;2022-08-06T03:09:55;96604.50;;;18.91;100.00
57763;BME280;43592;42.524;12.052;2022-08-06T03:12:21;96601.81;;;18.87;100.00
57763;BME280;43592;42.524;12.052;2022-08-06T03:14:47;96600.66;;;18.81;100.00
57763;BME280;43592;42.524;12.052;2022-08-06T03:17:13;96599.88;;;18.73;100.00
57763;BME280;43592;42.524;12.052;2022-08-06T03:19:40;96596.03;;;18.67;100.00
57763;BME280;43592;42.524;12.052;2022-08-06T03:22:06;96601.06;;;18.65;100.00
57763;BME280;43592;42.524;12.052;2022-08-06T03:24:34;96599.53;;;18.64;100.00
57763;BME280;43592;42.524;12.052;2022-08-06T03:27:00;96603.44;;;18.63;100.00
57763;BME280;43592;42.524;12.052;2022-08-06T03:29:26;96604.97;;;18.64;100.00
57763;BME280;43592;42.524;12.052;2022-08-06T03:31:52;96605.75;;;18.61;100.00
57763;BME280;43592;42.524;12.052;2022-08-06T03:34:19;96599.97;;;18.55;100.00
57763;BME280;43592;42.524;12.052;2022-08-06T03:36:45;96593.78;;;18.51;100.00
57763;BME280;43592;42.524;12.052;2022-08-06T03:39:11;96596.09;;;18.53;100.00
57763;BME280;43592;42.524;12.052;2022-08-06T03:41:38;96606.16;;;18.56;100.00
57763;BME280;43592;42.524;12.052;2022-08-06T03:44:04;96599.97;;;18.55;100.00
57763;BME280;43592;42.524;12.052;2022-08-06T03:46:34;96596.50;;;18.51;100.00
57763;BME280;43592;42.524;12.052;2022-08-06T03:49:02;96603.47;;;18.49;100.00
57763;BME280;43592;42.524;12.052;2022-08-06T03:51:28;96605.03;;;18.46;100.00
57763;BME280;43592;42.524;12.052;2022-08-06T03:53:54;96606.94;;;18.42;100.00
57763;BME280;43592;42.524;12.052;2022-08-06T03:56:23;96607.38;;;18.40;100.00
57763;BME280;43592;42.524;12.052;2022-08-06T03:58:49;96598.06;;;18.38;100.00
57763;BME280;43592;42.524;12.052;2022-08-06T04:01:16;96608.53;;;18.43;100.00
57763;BME280;43592;42.524;12.052;2022-08-06T04:03:42;96608.09;;;18.48;100.00
57763;BME280;43592;42.524;12.052;2022-08-06T04:06:09;96605.38;;;18.48;100.00
57763;BME280;43592;42.524;12.052;2022-08-06T04:08:36;96612.38;;;18.46;100.00
57763;BME280;43592;42.524;12.052;2022-08-06T04:11:03;96606.97;;;18.46;100.00
57763;BME280;43592;42.524;12.052;2022-08-06T04:13:29;96606.16;;;18.45;100.00
57763;BME280;43592;42.524;12.052;2022-08-06T04:15:55;96614.72;;;18.44;100.00
57763;BME280;43592;42.524;12.052;2022-08-06T04:18:22;96610.84;;;18.41;100.00
57763;BME280;43592;42.524;12.052;2022-08-06T04:20:49;96609.31;;;18.40;100.00
57763;BME280;43592;42.524;12.052;2022-08-06T04:23:15;96613.53;;;18.41;100.00
57763;BME280;43592;42.524;12.052;2022-08-06T04:25:45;96605.03;;;18.46;100.00
57763;BME280;43592;42.524;12.052;2022-08-06T04:28:12;96608.47;;;18.57;100.00
57763;BME280;43592;42.524;12.052;2022-08-06T04:30:39;96615.41;;;18.62;100.00
57763;BME280;43592;42.524;12.052;2022-08-06T04:33:05;96611.56;;;18.63;100.00
57763;BME280;43592;42.524;12.052;2022-08-06T04:35:31;96605.34;;;18.62;100.00
57763;BME280;43592;42.524;12.052;2022-08-06T04:38:00;96616.97;;;18.63;100.00
57763;BME280;43592;42.524;12.052;2022-08-06T04:40:25;96616.59;;;18.61;100.00
57763;BME280;43592;42.524;12.052;2022-08-06T04:42:52;96619.31;;;18.61;100.00
57763;BME280;43592;42.524;12.052;2022-08-06T04:45:17;96622.00;;;18.65;100.00
57763;BME280;43592;42.524;12.052;2022-08-06T04:47:43;96620.81;;;18.69;100.00
57763;BME280;43592;42.524;12.052;2022-08-06T04:50:09;96621.97;;;18.79;100.00
57763;BME280;43592;42.524;12.052;2022-08-06T04:52:35;96624.63;;;18.93;100.00
57763;BME280;43592;42.524;12.052;2022-08-06T04:55:01;96624.91;;;19.13;100.00
57763;BME280;43592;42.524;12.052;2022-08-06T04:57:26;96624.44;;;19.33;100.00
57763;BME280;43592;42.524;12.052;2022-08-06T04:59:52;96623.19;;;19.44;100.00
57763;BME280;43592;42.524;12.052;2022-08-06T05:02:17;96618.91;;;19.50;100.00
57763;BME280;43592;42.524;12.052;2022-08-06T05:04:43;96621.97;;;19.56;100.00
57763;BME280;43592;42.524;12.052;2022-08-06T05:09:41;96626.53;;;19.70;100.00
57763;BME280;43592;42.524;12.052;2022-08-06T05:12:11;96617.97;;;19.75;100.00
57763;BME280;43592;42.524;12.052;2022-08-06T05:14:39;96620.22;;;19.84;100.00
57763;BME280;43592;42.524;12.052;2022-08-06T05:17:06;96619.38;;;19.94;100.00
57763;BME280;43592;42.524;12.052;2022-08-06T05:19:35;96620.88;;;20.02;100.00
57763;BME280;43592;42.524;12.052;2022-08-06T05:22:01;96619.59;;;20.14;100.00
57763;BME280;43592;42.524;12.052;2022-08-06T05:24:28;96616.75;;;20.28;100.00
57763;BME280;43592;42.524;12.052;2022-08-06T05:26:54;96621.66;;;20.44;100.00
57763;BME280;43592;42.524;12.052;2022-08-06T05:29:20;96623.00;;;20.63;100.00
57763;BME280;43592;42.524;12.052;2022-08-06T05:31:45;96624.41;;;20.78;100.00
57763;BME280;43592;42.524;12.052;2022-08-06T05:34:11;96619.56;;;20.93;100.00
57763;BME280;43592;42.524;12.052;2022-08-06T05:36:37;96624.47;;;21.05;100.00
57763;BME280;43592;42.524;12.052;2022-08-06T05:39:03;96620.41;;;21.17;100.00
57763;BME280;43592;42.524;12.052;2022-08-06T05:41:28;96623.00;;;21.28;100.00
57763;BME280;43592;42.524;12.052;2022-08-06T05:43:54;96624.44;;;21.36;100.00
57763;BME280;43592;42.524;12.052;2022-08-06T05:46:20;96626.69;;;21.45;100.00
57763;BME280;43592;42.524;12.052;2022-08-06T05:48:51;96630.03;;;21.56;100.00
57763;BME280;43592;42.524;12.052;2022-08-06T05:51:20;96627.91;;;21.67;100.00
57763;BME280;43592;42.524;12.052;2022-08-06T05:53:51;96619.16;;;21.80;99.92
57763;BME280;43592;42.524;12.052;2022-08-06T05:56:20;96627.13;;;21.94;98.90
57763;BME280;43592;42.524;12.052;2022-08-06T05:58:53;96630.03;;;22.07;98.34
57763;BME280;43592;42.524;12.052;2022-08-06T06:01:20;96619.34;;;22.19;97.69
57763;BME280;43592;42.524;12.052;2022-08-06T06:03:47;96617.06;;;22.38;97.50
57763;BME280;43592;42.524;12.052;2022-08-06T06:06:14;96616.66;;;22.59;96.25
57763;BME280;43592;42.524;12.052;2022-08-06T06:08:40;96625.81;;;22.89;95.36
57763;BME280;43592;42.524;12.052;2022-08-06T06:11:06;96617.69;;;23.25;92.51
57763;BME280;43592;42.524;12.052;2022-08-06T06:13:33;96624.03;;;23.91;89.33
57763;BME280;43592;42.524;12.052;2022-08-06T06:21:18;96625.41;;;27.10;74.68
57763;BME280;43592;42.524;12.052;2022-08-06T06:23:48;96626.94;;;28.14;69.01
57763;BME280;43592;42.524;12.052;2022-08-06T06:34:09;96630.94;;;30.86;58.22
57763;BME280;43592;42.524;12.052;2022-08-06T06:36:51;96630.78;;;31.34;55.29
57763;BME280;43592;42.524;12.052;2022-08-06T06:39:23;96624.13;;;31.76;54.98
57763;BME280;43592;42.524;12.052;2022-08-06T06:44:35;96618.56;;;32.67;53.07
57763;BME280;43592;42.524;12.052;2022-08-06T06:47:26;96628.59;;;32.91;52.42
57763;BME280;43592;42.524;12.052;2022-08-06T06:49:58;96628.34;;;33.15;51.36
57763;BME280;43592;42.524;12.052;2022-08-06T06:52:26;96629.59;;;33.14;50.49
57763;BME280;43592;42.524;12.052;2022-08-06T06:55:04;96635.63;;;33.12;52.00
57763;BME280;43592;42.524;12.052;2022-08-06T06:57:32;96633.78;;;33.03;53.07
57763;BME280;43592;42.524;12.052;2022-08-06T07:00:00;96627.59;;;33.14;52.53
57763;BME280;43592;42.524;12.052;2022-08-06T07:02:27;96632.22;;;33.54;51.26
57763;BME280;43592;42.524;12.052;2022-08-06T07:04:54;96624.88;;;33.83;48.74
57763;BME280;43592;42.524;12.052;2022-08-06T07:07:20;96631.50;;;34.03;49.01
57763;BME280;43592;42.524;12.052;2022-08-06T07:09:46;96639.47;;;34.21;48.98
57763;BME280;43592;42.524;12.052;2022-08-06T07:12:12;96645.47;;;34.14;48.53
57763;BME280;43592;42.524;12.052;2022-08-06T07:14:39;96639.22;;;34.25;47.81
57763;BME280;43592;42.524;12.052;2022-08-06T07:17:05;96637.81;;;34.46;47.51
57763;BME280;43592;42.524;12.052;2022-08-06T07:19:31;96641.94;;;34.73;46.75
57763;BME280;43592;42.524;12.052;2022-08-06T07:21:58;96642.53;;;34.94;46.12
57763;BME280;43592;42.524;12.052;2022-08-06T07:24:24;96643.59;;;35.14;45.58
57763;BME280;43592;42.524;12.052;2022-08-06T07:26:51;96643.34;;;35.12;46.16
57763;BME280;43592;42.524;12.052;2022-08-06T07:29:18;96633.69;;;35.01;45.20
57763;BME280;43592;42.524;12.052;2022-08-06T07:31:45;96640.63;;;34.52;46.98
57763;BME280;43592;42.524;12.052;2022-08-06T07:34:11;96646.66;;;34.50;47.26
57763;BME280;43592;42.524;12.052;2022-08-06T07:36:39;96644.91;;;34.53;46.14
57763;BME280;43592;42.524;12.052;2022-08-06T07:39:10;96643.72;;;34.59;44.06
57763;BME280;43592;42.524;12.052;2022-08-06T07:41:36;96649.56;;;34.78;45.24
57763;BME280;43592;42.524;12.052;2022-08-06T07:44:02;96652.03;;;34.65;44.97
57763;BME280;43592;42.524;12.052;2022-08-06T07:46:29;96650.09;;;34.88;44.83
57763;BME280;43592;42.524;12.052;2022-08-06T07:48:57;96652.09;;;34.82;44.27
57763;BME280;43592;42.524;12.052;2022-08-06T07:51:25;96654.38;;;34.89;44.88
57763;BME280;43592;42.524;12.052;2022-08-06T07:53:52;96648.91;;;35.12;44.24
57763;BME280;43592;42.524;12.052;2022-08-06T07:56:18;96644.38;;;35.53;43.01
57763;BME280;43592;42.524;12.052;2022-08-06T07:58:44;96648.41;;;35.69;42.47
57763;BME280;43592;42.524;12.052;2022-08-06T08:01:10;96646.13;;;35.90;41.77
57763;BME280;43592;42.524;12.052;2022-08-06T08:03:36;96651.91;;;35.87;41.74
57763;BME280;43592;42.524;12.052;2022-08-06T08:06:21;96645.34;;;35.95;41.22
57763;BME280;43592;42.524;12.052;2022-08-06T08:09:00;96646.09;;;36.02;41.42
57763;BME280;43592;42.524;12.052;2022-08-06T08:11:27;96641.28;;;36.02;40.29
57763;BME280;43592;42.524;12.052;2022-08-06T08:13:54;96639.50;;;36.16;41.41
57763;BME280;43592;42.524;12.052;2022-08-06T08:16:20;96646.59;;;36.06;40.52
57763;BME280;43592;42.524;12.052;2022-08-06T08:18:46;96642.59;;;35.84;40.05
57763;BME280;43592;42.524;12.052;2022-08-06T08:21:12;96646.41;;;35.64;40.99
57763;BME280;43592;42.524;12.052;2022-08-06T08:23:39;96641.56;;;35.82;40.83
57763;BME280;43592;42.524;12.052;2022-08-06T08:26:05;96646.16;;;35.62;41.17
57763;BME280;43592;42.524;12.052;2022-08-06T08:28:31;96642.03;;;35.97;41.03
57763;BME280;43592;42.524;12.052;2022-08-06T08:30:57;96647.25;;;36.34;39.63
57763;BME280;43592;42.524;12.052;2022-08-06T08:33:31;96646.22;;;36.43;39.16
57763;BME280;43592;42.524;12.052;2022-08-06T08:35:57;96632.25;;;36.54;39.17
57763;BME280;43592;42.524;12.052;2022-08-06T08:38:23;96641.75;;;36.81;37.77
57763;BME280;43592;42.524;12.052;2022-08-06T08:40:50;96633.75;;;37.08;37.97
57763;BME280;43592;42.524;12.052;2022-08-06T08:43:25;96636.03;;;37.45;36.87
57763;BME280;43592;42.524;12.052;2022-08-06T08:45:52;96635.44;;;37.83;36.51
57763;BME280;43592;42.524;12.052;2022-08-06T08:48:20;96633.94;;;38.06;34.47
57763;BME280;43592;42.524;12.052;2022-08-06T08:50:48;96633.59;;;38.15;36.04
57763;BME280;43592;42.524;12.052;2022-08-06T08:53:14;96633.06;;;38.17;35.73
57763;BME280;43592;42.524;12.052;2022-08-06T08:55:44;96636.34;;;37.96;35.14
57763;BME280;43592;42.524;12.052;2022-08-06T08:58:11;96644.13;;;38.04;34.54
57763;BME280;43592;42.524;12.052;2022-08-06T09:00:37;96636.69;;;38.12;34.30
57763;BME280;43592;42.524;12.052;2022-08-06T09:03:03;96643.34;;;37.79;34.87
57763;BME280;43592;42.524;12.052;2022-08-06T09:05:30;96637.88;;;37.67;36.03
57763;BME280;43592;42.524;12.052;2022-08-06T09:07:56;96639.16;;;37.66;35.93
57763;BME280;43592;42.524;12.052;2022-08-06T09:10:22;96638.28;;;37.77;35.50
57763;BME280;43592;42.524;12.052;2022-08-06T09:12:50;96641.25;;;37.85;35.25
57763;BME280;43592;42.524;12.052;2022-08-06T09:15:16;96640.44;;;37.65;34.96
57763;BME280;43592;42.524;12.052;2022-08-06T09:17:41;96641.94;;;37.66;35.02
57763;BME280;43592;42.524;12.052;2022-08-06T09:20:07;96636.19;;;37.83;34.83
57763;BME280;43592;42.524;12.052;2022-08-06T09:22:33;96640.28;;;38.07;35.44
57763;BME280;43592;42.524;12.052;2022-08-06T09:24:58;96640.56;;;38.28;34.13
57763;BME280;43592;42.524;12.052;2022-08-06T09:27:24;96643.13;;;38.50;34.72
57763;BME280;43592;42.524;12.052;2022-08-06T09:29:58;96631.63;;;38.73;32.72
57763;BME280;43592;42.524;12.052;2022-08-06T09:32:37;96633.91;;;38.55;34.41
57763;BME280;43592;42.524;12.052;2022-08-06T09:35:14;96640.59;;;38.47;33.60
57763;BME280;43592;42.524;12.052;2022-08-06T09:37:41;96644.50;;;38.38;34.09
57763;BME280;43592;42.524;12.052;2022-08-06T09:40:13;96635.19;;;38.30;34.14
57763;BME280;43592;42.524;12.052;2022-08-06T09:42:40;96631.09;;;38.12;34.04
57763;BME280;43592;42.524;12.052;2022-08-06T09:45:07;96632.28;;;37.97;34.89
57763;BME280;43592;42.524;12.052;2022-08-06T09:47:32;96625.69;;;37.95;35.39
57763;BME280;43592;42.524;12.052;2022-08-06T09:49:58;96630.81;;;37.91;35.51
57763;BME280;43592;42.524;12.052;2022-08-06T09:52:23;96617.75;;;37.74;31.67
57763;BME280;43592;42.524;12.052;2022-08-06T09:54:48;96619.78;;;37.49;35.35
57763;BME280;43592;42.524;12.052;2022-08-06T09:57:14;96625.13;;;37.42;33.65
57763;BME280;43592;42.524;12.052;2022-08-06T09:59:46;96630.75;;;37.36;33.81
57763;BME280;43592;42.524;12.052;2022-08-06T10:02:15;96633.06;;;37.32;34.80
57763;BME280;43592;42.524;12.052;2022-08-06T10:04:42;96617.25;;;37.46;34.94
57763;BME280;43592;42.524;12.052;2022-08-06T10:07:08;96620.53;;;37.50;34.71
57763;BME280;43592;42.524;12.052;2022-08-06T10:09:34;96621.00;;;37.54;34.06
57763;BME280;43592;42.524;12.052;2022-08-06T10:12:02;96630.50;;;37.40;33.09
57763;BME280;43592;42.524;12.052;2022-08-06T10:14:42;96621.63;;;37.36;33.47
57763;BME280;43592;42.524;12.052;2022-08-06T10:17:09;96624.75;;;37.26;32.89
57763;BME280;43592;42.524;12.052;2022-08-06T10:19:36;96622.44;;;37.30;35.77
57763;BME280;43592;42.524;12.052;2022-08-06T10:24:31;96626.50;;;37.65;33.31
57763;BME280;43592;42.524;12.052;2022-08-06T10:26:57;96606.69;;;37.88;34.42
57763;BME280;43592;42.524;12.052;2022-08-06T10:29:23;96618.09;;;37.90;33.10
57763;BME280;43592;42.524;12.052;2022-08-06T10:31:50;96612.34;;;38.07;33.75
57763;BME280;43592;42.524;12.052;2022-08-06T10:34:23;96609.94;;;37.97;31.33
57763;BME280;43592;42.524;12.052;2022-08-06T10:37:00;96614.53;;;37.65;32.49
57763;BME280;43592;42.524;12.052;2022-08-06T10:39:30;96606.66;;;37.69;31.93
57763;BME280;43592;42.524;12.052;2022-08-06T10:41:58;96612.41;;;37.52;30.14
57763;BME280;43592;42.524;12.052;2022-08-06T10:44:25;96607.84;;;37.49;29.73
57763;BME280;43592;42.524;12.052;2022-08-06T10:46:52;96604.25;;;37.54;32.18
57763;BME280;43592;42.524;12.052;2022-08-06T10:49:21;96601.13;;;37.63;29.46
57763;BME280;43592;42.524;12.052;2022-08-06T10:51:49;96598.16;;;37.56;28.24
57763;BME280;43592;42.524;12.052;2022-08-06T10:54:15;96601.53;;;37.73;29.27
57763;BME280;43592;42.524;12.052;2022-08-06T10:56:41;96598.66;;;37.79;27.08
57763;BME280;43592;42.524;12.052;2022-08-06T10:59:07;96603.59;;;37.97;28.10
57763;BME280;43592;42.524;12.052;2022-08-06T11:14:21;96587.97;;;39.21;28.90
57763;BME280;43592;42.524;12.052;2022-08-06T11:16:54;96595.94;;;39.17;25.48
57763;BME280;43592;42.524;12.052;2022-08-06T11:19:19;96591.66;;;38.97;27.54
57763;BME280;43592;42.524;12.052;2022-08-06T11:22:01;96591.75;;;38.91;29.10
57763;BME280;43592;42.524;12.052;2022-08-06T11:24:27;96589.00;;;39.04;29.24
57763;BME280;43592;42.524;12.052;2022-08-06T11:26:52;96582.53;;;39.10;29.93
57763;BME280;43592;42.524;12.052;2022-08-06T11:29:18;96575.38;;;39.14;27.39
57763;BME280;43592;42.524;12.052;2022-08-06T11:31:45;96582.59;;;38.91;27.17
57763;BME280;43592;42.524;12.052;2022-08-06T11:34:14;96577.06;;;38.85;28.51
57763;BME280;43592;42.524;12.052;2022-08-06T11:39:09;96573.84;;;38.62;26.20
57763;BME280;43592;42.524;12.052;2022-08-06T11:41:48;96563.81;;;38.53;28.59
57763;BME280;43592;42.524;12.052;2022-08-06T11:44:15;96571.13;;;38.56;30.65
57763;BME280;43592;42.524;12.052;2022-08-06T11:46:47;96565.00;;;38.77;30.72
57763;BME280;43592;42.524;12.052;2022-08-06T11:49:20;96562.34;;;38.84;30.06
57763;BME280;43592;42.524;12.052;2022-08-06T11:54:12;96560.28;;;39.04;28.57
57763;BME280;43592;42.524;12.052;2022-08-06T11:59:22;96566.56;;;38.91;29.56
57763;BME280;43592;42.524;12.052;2022-08-06T12:01:48;96560.94;;;39.10;30.06
57763;BME280;43592;42.524;12.052;2022-08-06T12:04:56;96553.97;;;39.17;28.66
57763;BME280;43592;42.524;12.052;2022-08-06T12:09:42;96559.06;;;39.32;26.44
57763;BME280;43592;42.524;12.052;2022-08-06T12:14:49;96543.81;;;39.33;30.19
57763;BME280;43592;42.524;12.052;2022-08-06T12:17:16;96542.72;;;39.49;30.26
57763;BME280;43592;42.524;12.052;2022-08-06T12:19:43;96535.75;;;39.69;29.42
57763;BME280;43592;42.524;12.052;2022-08-06T12:22:09;96533.31;;;39.79;28.41
57763;BME280;43592;42.524;12.052;2022-08-06T12:24:37;96528.13;;;39.83;28.53
57763;BME280;43592;42.524;12.052;2022-08-06T12:27:06;96528.31;;;39.71;28.99
57763;BME280;43592;42.524;12.052;2022-08-06T12:29:32;96526.91;;;39.65;28.04
57763;BME280;43592;42.524;12.052;2022-08-06T12:31:58;96524.75;;;39.71;28.30
57763;BME280;43592;42.524;12.052;2022-08-06T12:34:24;96534.88;;;39.74;28.46
57763;BME280;43592;42.524;12.052;2022-08-06T12:36:51;96531.66;;;39.57;29.01
57763;BME280;43592;42.524;12.052;2022-08-06T12:39:17;96528.00;;;39.48;28.04
57763;BME280;43592;42.524;12.052;2022-08-06T12:41:43;96520.34;;;39.49;29.17
57763;BME280;43592;42.524;12.052;2022-08-06T12:44:09;96517.88;;;39.45;27.97
57763;BME280;43592;42.524;12.052;2022-08-06T12:46:35;96514.44;;;39.53;29.57
57763;BME280;43592;42.524;12.052;2022-08-06T12:49:01;96517.44;;;39.55;29.06
57763;BME280;43592;42.524;12.052;2022-08-06T12:51:27;96514.34;;;39.58;29.22
57763;BME280;43592;42.524;12.052;2022-08-06T12:53:54;96518.84;;;39.61;29.24
57763;BME280;43592;42.524;12.052;2022-08-06T12:56:22;96502.69;;;39.54;27.64
57763;BME280;43592;42.524;12.052;2022-08-06T12:58:49;96502.91;;;39.56;26.77
57763;BME280;43592;42.524;12.052;2022-08-06T13:01:19;96502.38;;;39.71;29.15
57763;BME280;43592;42.524;12.052;2022-08-06T13:03:46;96494.31;;;39.81;27.88
57763;BME280;43592;42.524;12.052;2022-08-06T13:06:14;96496.00;;;39.57;28.97
57763;BME280;43592;42.524;12.052;2022-08-06T13:08:40;96492.03;;;38.94;29.38
57763;BME280;43592;42.524;12.052;2022-08-06T13:11:07;96492.28;;;38.45;29.17
57763;BME280;43592;42.524;12.052;2022-08-06T13:13:40;96485.56;;;37.72;29.66
57763;BME280;43592;42.524;12.052;2022-08-06T13:16:07;96485.47;;;37.59;29.73
57763;BME280;43592;42.524;12.052;2022-08-06T13:18:34;96475.31;;;37.80;29.82
57763;BME280;43592;42.524;12.052;2022-08-06T13:21:00;96481.41;;;38.03;29.53
57763;BME280;43592;42.524;12.052;2022-08-06T13:23:32;96476.72;;;38.49;29.08
57763;BME280;43592;42.524;12.052;2022-08-06T13:25:58;96479.56;;;38.62;27.31
57763;BME280;43592;42.524;12.052;2022-08-06T13:28:24;96477.75;;;38.65;27.53
57763;BME280;43592;42.524;12.052;2022-08-06T13:30:50;96470.22;;;38.03;30.33
57763;BME280;43592;42.524;12.052;2022-08-06T13:35:42;96462.00;;;37.48;31.16
57763;BME280;43592;42.524;12.052;2022-08-06T13:38:08;96468.75;;;37.78;30.85
57763;BME280;43592;42.524;12.052;2022-08-06T13:40:39;96461.31;;;38.24;30.43
57763;BME280;43592;42.524;12.052;2022-08-06T13:43:06;96463.88;;;38.22;29.02
57763;BME280;43592;42.524;12.052;2022-08-06T13:45:32;96463.63;;;38.38;29.49
57763;BME280;43592;42.524;12.052;2022-08-06T13:48:04;96455.97;;;38.07;30.46
57763;BME280;43592;42.524;12.052;2022-08-06T13:50:36;96456.06;;;37.58;31.75
57763;BME280;43592;42.524;12.052;2022-08-06T13:53:03;96442.03;;;37.39;32.01